createdAt,value
2023-04-05T00:01:12.571Z,10.32
2023-04-05T00:03:40.255Z,9.88
2023-04-05T00:06:07.849Z,12.93
2023-04-05T00:08:34.343Z,11.57
2023-04-05T00:11:01.953Z,15.02
2023-04-05T00:13:28.509Z,10.52
2023-04-05T00:15:58.191Z,10.50
2023-04-05T00:18:25.654Z,11.77
2023-04-05T00:20:53.040Z,12.57
2023-04-05T00:23:21.348Z,19.88
2023-04-05T00:25:48.192Z,14.07
2023-04-05T00:28:14.715Z,10.93
2023-04-05T00:30:41.411Z,15.90
2023-04-05T00:33:08.091Z,11.57
2023-04-05T00:35:34.636Z,11.27
2023-04-05T00:38:01.263Z,6.70
2023-04-05T00:40:27.812Z,8.10
2023-04-05T00:42:54.309Z,9.18
2023-04-05T00:45:20.989Z,9.80
2023-04-05T00:47:47.832Z,8.55
2023-04-05T00:50:15.972Z,6.88
2023-04-05T00:52:43.986Z,11.27
2023-04-05T00:55:11.207Z,9.77
2023-04-05T00:57:39.184Z,8.10
2023-04-05T01:00:09.498Z,10.93
2023-04-05T01:02:45.981Z,8.57
2023-04-05T01:05:37.112Z,10.02
2023-04-05T01:08:17.675Z,7.57
2023-04-05T01:10:58.967Z,9.27
2023-04-05T01:13:25.994Z,7.95
2023-04-05T01:15:52.599Z,11.13
2023-04-05T01:18:19.359Z,6.68
2023-04-05T01:20:56.197Z,11.85
2023-04-05T01:23:42.557Z,8.50
2023-04-05T01:26:15.056Z,7.40
2023-04-05T01:29:09.739Z,9.05
2023-04-05T01:31:53.666Z,7.60
2023-04-05T01:34:36.858Z,6.20
2023-04-05T01:37:07.509Z,7.60
2023-04-05T01:39:36.572Z,6.38
2023-04-05T01:42:04.372Z,5.75
2023-04-05T01:44:31.248Z,6.38
2023-04-05T01:46:57.710Z,7.55
2023-04-05T01:49:24.667Z,6.20
2023-04-05T01:51:51.257Z,7.00
2023-04-05T01:54:17.733Z,10.48
2023-04-05T01:56:44.622Z,8.98
2023-04-05T01:59:11.159Z,6.00
2023-04-05T02:01:37.654Z,6.20
2023-04-05T02:04:04.178Z,9.38
2023-04-05T02:06:31.992Z,6.28
2023-04-05T02:08:58.529Z,5.95
2023-04-05T02:11:25.057Z,7.45
2023-04-05T02:13:51.561Z,5.82
2023-04-05T02:16:18.473Z,9.85
2023-04-05T02:18:50.780Z,6.28
2023-04-05T02:21:17.293Z,6.45
2023-04-05T02:23:44.073Z,7.00
2023-04-05T02:26:10.801Z,6.32
2023-04-05T02:28:37.258Z,8.35
2023-04-05T02:31:09.282Z,7.30
2023-04-05T02:33:35.916Z,8.77
2023-04-05T02:36:06.634Z,6.00
2023-04-05T02:38:33.857Z,6.82
2023-04-05T02:41:00.448Z,9.43
2023-04-05T02:43:27.634Z,8.35
2023-04-05T02:45:54.203Z,8.55
2023-04-05T02:48:20.945Z,6.10
2023-04-05T02:50:49.930Z,11.77
2023-04-05T02:53:19.470Z,6.38
2023-04-05T02:55:56.865Z,5.38
2023-04-05T02:58:24.322Z,7.85
2023-04-05T03:00:52.933Z,12.60
2023-04-05T03:03:22.892Z,7.75
2023-04-05T03:05:59.144Z,9.82
2023-04-05T03:08:25.630Z,12.32
2023-04-05T03:10:52.153Z,5.18
2023-04-05T03:13:18.586Z,8.38
2023-04-05T03:15:45.113Z,10.93
2023-04-05T03:18:11.609Z,8.50
2023-04-05T03:20:41.458Z,6.70
2023-04-05T03:23:08.986Z,9.02
2023-04-05T03:25:37.182Z,7.93
2023-04-05T03:28:08.591Z,7.57
2023-04-05T03:30:36.982Z,9.00
2023-04-05T03:33:03.945Z,7.97
2023-04-05T03:35:30.958Z,8.27
2023-04-05T03:37:57.532Z,7.15
2023-04-05T03:40:24.682Z,8.60
2023-04-05T03:42:51.554Z,9.52
2023-04-05T03:45:23.102Z,9.73
2023-04-05T03:47:51.031Z,8.98
2023-04-05T03:50:17.615Z,8.30
2023-04-05T03:52:47.163Z,9.68
2023-04-05T03:55:14.148Z,9.98
2023-04-05T03:57:41.640Z,8.40
2023-04-05T04:00:14.994Z,7.47
2023-04-05T04:02:46.751Z,10.65
2023-04-05T04:05:14.375Z,10.65
2023-04-05T04:07:41.788Z,7.05
2023-04-05T04:10:10.508Z,11.05
2023-04-05T04:12:37.969Z,6.75
2023-04-05T04:15:05.020Z,7.53
2023-04-05T04:17:39.609Z,7.78
2023-04-05T04:20:13.208Z,8.23
2023-04-05T04:22:40.558Z,6.72
2023-04-05T04:25:12.628Z,7.03
2023-04-05T04:30:12.477Z,9.43
2023-04-05T04:32:55.416Z,9.68
2023-04-05T04:35:28.097Z,9.50
2023-04-05T04:38:00.174Z,11.38
2023-04-05T04:40:41.190Z,8.90
2023-04-05T04:43:18.895Z,7.78
2023-04-05T04:45:51.987Z,9.45
2023-04-05T04:48:18.780Z,8.82
2023-04-05T04:50:46.690Z,10.73
2023-04-05T04:53:13.785Z,10.85
2023-04-05T04:55:43.305Z,12.52
2023-04-05T04:58:11.791Z,13.55
2023-04-05T05:00:40.686Z,11.82
2023-04-05T05:03:08.556Z,15.98
2023-04-05T05:05:35.151Z,12.07
2023-04-05T05:08:01.866Z,14.63
2023-04-05T05:10:28.332Z,13.90
2023-04-05T05:12:54.899Z,11.10
2023-04-05T05:15:21.359Z,10.48
2023-04-05T05:17:53.858Z,11.88
2023-04-05T05:20:21.369Z,13.45
2023-04-05T05:22:48.477Z,9.55
2023-04-05T05:25:17.712Z,16.05
2023-04-05T05:27:44.254Z,12.85
2023-04-05T05:30:11.485Z,11.10
2023-04-05T05:32:38.125Z,10.00
2023-04-05T05:35:05.176Z,10.60
2023-04-05T05:37:33.161Z,12.10
2023-04-05T05:39:59.953Z,11.57
2023-04-05T05:42:27.361Z,11.55
2023-04-05T05:44:56.401Z,7.80
2023-04-05T05:47:23.097Z,7.93
2023-04-05T05:49:49.825Z,13.63
2023-04-05T05:52:16.959Z,11.77
2023-04-05T05:54:43.502Z,12.80
2023-04-05T05:57:09.985Z,8.80
2023-04-05T05:59:36.662Z,12.20
2023-04-05T06:02:06.117Z,11.20
2023-04-05T06:04:34.151Z,9.63
2023-04-05T06:07:01.726Z,11.27
2023-04-05T06:09:29.063Z,14.38
2023-04-05T06:11:57.292Z,8.70
2023-04-05T06:14:25.237Z,15.93
2023-04-05T06:16:54.309Z,8.32
2023-04-05T06:19:20.887Z,11.18
2023-04-05T06:21:47.597Z,9.15
2023-04-05T06:24:14.090Z,8.63
2023-04-05T06:26:41.210Z,10.90
2023-04-05T06:29:07.744Z,10.60
2023-04-05T06:31:36.060Z,13.15
2023-04-05T06:34:02.718Z,12.13
2023-04-05T06:36:33.872Z,10.90
2023-04-05T06:39:00.469Z,12.00
2023-04-05T06:41:27.824Z,17.90
2023-04-05T06:43:57.158Z,10.45
2023-04-05T06:46:24.075Z,6.38
2023-04-05T06:48:52.250Z,8.63
2023-04-05T06:51:21.545Z,11.85
2023-04-05T06:53:48.160Z,10.07
2023-04-05T06:56:14.636Z,14.35
2023-04-05T06:58:41.325Z,8.10
2023-04-05T07:01:07.859Z,13.48
2023-04-05T07:03:34.447Z,10.52
2023-04-05T07:06:04.312Z,14.15
2023-04-05T07:08:32.932Z,13.20
2023-04-05T07:10:59.720Z,15.27
2023-04-05T07:13:26.545Z,10.68
2023-04-05T07:16:00.494Z,17.35
2023-04-05T07:18:27.318Z,10.32
2023-04-05T07:21:00.041Z,13.63
2023-04-05T07:23:29.443Z,6.75
2023-04-05T07:26:00.606Z,8.07
2023-04-05T07:28:27.196Z,11.07
2023-04-05T07:30:53.873Z,16.70
2023-04-05T07:33:20.938Z,17.15
2023-04-05T07:35:53.366Z,18.40
2023-04-05T07:38:21.247Z,14.93
2023-04-05T07:40:51.389Z,9.80
2023-04-05T07:43:20.721Z,10.07
2023-04-05T07:45:47.294Z,11.02
2023-04-05T07:48:13.741Z,10.30
2023-04-05T07:50:41.176Z,15.15
2023-04-05T07:53:08.252Z,12.30
2023-04-05T07:55:38.203Z,8.75
2023-04-05T07:58:04.845Z,11.77
2023-04-05T08:00:31.491Z,13.98
2023-04-05T08:03:01.798Z,8.05
2023-04-05T08:05:28.900Z,8.40
2023-04-05T08:07:57.907Z,10.38
2023-04-05T08:10:24.992Z,6.57
2023-04-05T08:12:51.437Z,8.35
2023-04-05T08:15:17.929Z,9.55
2023-04-05T08:17:44.936Z,8.15
2023-04-05T08:20:11.894Z,8.88
2023-04-05T08:22:38.368Z,8.98
2023-04-05T08:25:08.231Z,7.60
2023-04-05T08:27:34.778Z,6.13
2023-04-05T08:30:01.363Z,10.35
2023-04-05T08:32:27.980Z,7.53
2023-04-05T08:34:54.458Z,8.23
2023-04-05T08:37:21.168Z,6.25
2023-04-05T08:39:47.629Z,7.28
2023-04-05T08:42:18.982Z,5.85
2023-04-05T08:44:46.926Z,9.90
2023-04-05T08:47:18.485Z,6.57
2023-04-05T08:49:45.901Z,10.25
2023-04-05T08:52:12.759Z,9.13
2023-04-05T08:54:39.312Z,10.98
2023-04-05T08:57:07.378Z,10.10
2023-04-05T08:59:37.592Z,6.55
2023-04-05T09:02:10.947Z,10.82
2023-04-05T09:04:44.816Z,8.82
2023-04-05T09:07:14.022Z,7.97
2023-04-05T09:09:48.934Z,5.97
2023-04-05T09:12:15.885Z,9.20
2023-04-05T09:14:43.388Z,5.45
2023-04-05T09:17:10.507Z,6.15
2023-04-05T09:19:37.278Z,8.82
2023-04-05T09:22:05.732Z,8.07
2023-04-05T09:24:37.019Z,7.78
2023-04-05T09:27:06.240Z,5.70
2023-04-05T09:29:35.344Z,7.13
2023-04-05T09:32:05.600Z,6.82
2023-04-05T09:34:33.253Z,6.00
2023-04-05T09:37:00.919Z,9.63
2023-04-05T09:39:32.591Z,4.82
2023-04-05T09:42:26.082Z,5.53
2023-04-05T09:45:05.033Z,6.35
2023-04-05T09:47:34.657Z,7.55
2023-04-05T09:50:04.414Z,6.38
2023-04-05T09:52:32.276Z,7.07
2023-04-05T09:55:04.299Z,4.85
2023-04-05T10:00:00.785Z,6.95
2023-04-05T10:02:37.170Z,5.32
2023-04-05T10:05:08.483Z,5.65
2023-04-05T10:07:35.754Z,5.38
2023-04-05T10:10:02.306Z,5.90
2023-04-05T10:12:29.368Z,8.73
2023-04-05T10:14:57.172Z,4.68
2023-04-05T10:17:25.921Z,5.47
2023-04-05T10:20:20.979Z,6.25
2023-04-05T10:23:11.053Z,5.88
2023-04-05T10:25:47.777Z,6.63
2023-04-05T10:28:52.915Z,4.97
2023-04-05T10:31:36.369Z,7.60
2023-04-05T10:34:06.863Z,6.57
2023-04-05T10:36:49.570Z,5.05
2023-04-05T10:39:36.655Z,7.00
2023-04-05T10:42:22.206Z,7.35
2023-04-05T10:44:59.969Z,5.03
2023-04-05T10:47:28.704Z,6.90
2023-04-05T10:50:00.257Z,7.28
2023-04-05T10:52:28.615Z,5.10
2023-04-05T10:54:57.268Z,6.80
2023-04-05T10:57:24.971Z,5.20
2023-04-05T10:59:52.354Z,5.38
2023-04-05T11:02:19.535Z,8.30
2023-04-05T11:04:46.163Z,6.75
2023-04-05T11:07:16.375Z,6.75
2023-04-05T11:10:14.321Z,6.15
2023-04-05T11:12:46.767Z,6.60
2023-04-05T11:15:28.537Z,7.53
2023-04-05T11:18:09.012Z,6.20
2023-04-05T11:20:51.861Z,5.13
2023-04-05T11:23:23.085Z,5.75
2023-04-05T11:25:59.717Z,4.83
2023-04-05T11:28:44.382Z,6.03
2023-04-05T11:31:19.001Z,6.32
2023-04-05T11:33:52.167Z,6.65
2023-04-05T11:36:41.879Z,7.78
2023-04-05T11:39:21.346Z,8.13
2023-04-05T11:42:01.574Z,4.88
2023-04-05T11:44:39.982Z,6.88
2023-04-05T11:47:06.922Z,5.32
2023-04-05T11:49:34.030Z,5.80
2023-04-05T11:52:10.805Z,7.72
2023-04-05T11:54:37.368Z,5.07
2023-04-05T11:57:04.133Z,7.32
2023-04-05T11:59:33.153Z,7.57
2023-04-05T12:02:08.147Z,7.28
2023-04-05T12:04:36.153Z,8.20
2023-04-05T12:07:14.031Z,7.72
2023-04-05T12:09:59.752Z,8.20
2023-04-05T12:12:26.782Z,4.80
2023-04-05T12:14:59.394Z,9.60
2023-04-05T12:17:44.035Z,5.97
2023-04-05T12:20:12.909Z,6.07
2023-04-05T12:22:41.542Z,5.43
2023-04-05T12:25:09.175Z,5.80
2023-04-05T12:27:36.062Z,11.02
2023-04-05T12:30:17.166Z,5.45
2023-04-05T12:32:52.376Z,7.97
2023-04-05T12:35:31.972Z,5.80
2023-04-05T12:38:05.912Z,5.50
2023-04-05T12:40:34.998Z,5.50
2023-04-05T12:43:05.898Z,4.55
2023-04-05T12:45:40.346Z,8.50
2023-04-05T12:48:13.184Z,5.90
2023-04-05T12:50:47.249Z,8.57
2023-04-05T12:53:21.901Z,9.55
2023-04-05T12:55:53.151Z,6.00
2023-04-05T12:58:24.077Z,6.88
2023-04-05T13:00:50.578Z,6.13
2023-04-05T13:03:21.115Z,7.53
2023-04-05T13:05:50.970Z,5.82
2023-04-05T13:08:20.920Z,5.57
2023-04-05T13:10:48.550Z,6.63
2023-04-05T13:13:18.267Z,7.38
2023-04-05T13:15:45.991Z,9.10
2023-04-05T13:18:14.899Z,7.28
2023-04-05T13:20:45.533Z,5.07
2023-04-05T13:23:13.099Z,8.80
2023-04-05T13:25:41.488Z,6.22
2023-04-05T13:28:08.356Z,8.07
2023-04-05T13:30:35.093Z,6.18
2023-04-05T13:33:01.716Z,6.85
2023-04-05T13:35:28.338Z,5.72
2023-04-05T13:37:54.926Z,6.28
2023-04-05T13:40:21.415Z,6.93
2023-04-05T13:42:49.063Z,7.40
2023-04-05T13:45:15.806Z,3.83
2023-04-05T13:47:42.295Z,7.45
2023-04-05T13:50:09.082Z,6.30
2023-04-05T13:52:35.602Z,5.57
2023-04-05T13:55:03.746Z,6.68
2023-04-05T13:57:30.851Z,8.48
2023-04-05T13:59:57.439Z,8.07
2023-04-05T14:02:26.065Z,5.72
2023-04-05T14:04:56.323Z,6.88
2023-04-05T14:07:24.128Z,8.45
2023-04-05T14:09:50.882Z,7.45
2023-04-05T14:12:18.256Z,7.95
2023-04-05T14:14:44.958Z,12.82
2023-04-05T14:17:14.327Z,5.68
2023-04-05T14:19:40.970Z,7.15
2023-04-05T14:22:07.838Z,5.30
2023-04-05T14:24:34.654Z,7.95
2023-04-05T14:27:01.258Z,11.73
2023-04-05T14:29:27.763Z,7.15
2023-04-05T14:31:56.116Z,9.48
2023-04-05T14:34:22.914Z,5.30
2023-04-05T14:36:49.763Z,3.67
2023-04-05T14:39:16.565Z,6.78
2023-04-05T14:41:44.055Z,7.75
2023-04-05T14:44:10.591Z,4.47
2023-04-05T14:46:37.258Z,7.00
2023-04-05T14:49:06.716Z,8.35
2023-04-05T14:51:33.286Z,7.05
2023-04-05T14:53:59.924Z,7.85
2023-04-05T14:56:26.472Z,6.40
2023-04-05T14:58:53.106Z,10.13
2023-04-05T15:01:19.701Z,6.55
2023-04-05T15:03:48.312Z,7.57
2023-04-05T15:06:16.319Z,8.15
2023-04-05T15:08:42.845Z,6.05
2023-04-05T15:11:09.402Z,5.90
2023-04-05T15:13:35.983Z,7.90
2023-04-05T15:16:05.831Z,5.70
2023-04-05T15:18:32.355Z,6.00
2023-04-05T15:20:58.907Z,7.28
2023-04-05T15:23:25.536Z,7.72
2023-04-05T15:25:52.032Z,6.65
2023-04-05T15:28:18.536Z,6.30
2023-04-05T15:30:45.817Z,7.53
2023-04-05T15:33:14.952Z,8.82
2023-04-05T15:35:41.515Z,6.20
2023-04-05T15:38:10.947Z,9.70
2023-04-05T15:40:38.209Z,8.93
2023-04-05T15:43:04.851Z,12.55
2023-04-05T15:45:31.849Z,7.38
2023-04-05T15:47:58.497Z,6.78
2023-04-05T15:50:25.118Z,8.20
2023-04-05T15:52:51.657Z,7.93
2023-04-05T15:55:18.358Z,6.78
2023-04-05T15:57:44.944Z,6.30
2023-04-05T16:00:12.159Z,6.07
2023-04-05T16:02:38.884Z,8.98
2023-04-05T16:05:05.909Z,9.93
2023-04-05T16:07:32.990Z,11.43
2023-04-05T16:09:59.556Z,5.97
2023-04-05T16:12:26.368Z,6.68
2023-04-05T16:14:52.857Z,10.98
2023-04-05T16:17:20.573Z,6.60
2023-04-05T16:19:47.257Z,5.05
2023-04-05T16:22:13.785Z,7.28
2023-04-05T16:24:40.272Z,16.50
2023-04-05T16:27:06.884Z,5.68
2023-04-05T16:29:33.439Z,7.00
2023-04-05T16:31:59.967Z,8.45
2023-04-05T16:34:26.590Z,9.02
2023-04-05T16:36:53.118Z,8.15
2023-04-05T16:39:19.717Z,6.80
2023-04-05T16:41:46.233Z,7.55
2023-04-05T16:44:12.888Z,6.75
2023-04-05T16:46:39.877Z,8.20
2023-04-05T16:49:06.500Z,5.32
2023-04-05T16:51:34.650Z,6.15
2023-04-05T16:54:01.303Z,6.95
2023-04-05T16:56:27.854Z,8.15
2023-04-05T16:58:55.197Z,7.88
2023-04-05T17:01:24.543Z,8.07
2023-04-05T17:03:51.297Z,7.82
2023-04-05T17:06:17.822Z,6.60
2023-04-05T17:08:44.352Z,8.25
2023-04-05T17:11:10.908Z,6.82
2023-04-05T17:13:40.589Z,5.63
2023-04-05T17:16:07.768Z,7.85
2023-04-05T17:18:34.335Z,7.35
2023-04-05T17:21:00.850Z,5.15
2023-04-05T17:23:28.049Z,6.90
2023-04-05T17:25:54.599Z,8.10
2023-04-05T17:28:21.207Z,7.03
2023-04-05T17:30:47.892Z,6.70
2023-04-05T17:33:14.638Z,4.80
2023-04-05T17:35:41.182Z,5.85
2023-04-05T17:38:07.835Z,6.30
2023-04-05T17:40:34.451Z,9.13
2023-04-05T17:43:01.185Z,8.35
2023-04-05T17:45:28.285Z,8.05
2023-04-05T17:47:54.927Z,8.18
2023-04-05T17:50:23.286Z,8.93
2023-04-05T17:52:51.264Z,12.55
2023-04-05T17:55:17.831Z,10.30
2023-04-05T17:57:44.346Z,11.82
2023-04-05T18:00:11.582Z,12.70
2023-04-05T18:02:40.672Z,9.75
2023-04-05T18:05:07.846Z,8.10
2023-04-05T18:07:38.204Z,9.10
2023-04-05T18:10:06.279Z,7.07
2023-04-05T18:12:33.319Z,9.10
2023-04-05T18:14:59.997Z,6.30
2023-04-05T18:17:27.985Z,7.50
2023-04-05T18:19:54.871Z,7.90
2023-04-05T18:22:21.552Z,6.93
2023-04-05T18:24:48.106Z,6.97
2023-04-05T18:27:14.649Z,7.38
2023-04-05T18:29:41.367Z,10.70
2023-04-05T18:32:08.307Z,5.32
2023-04-05T18:34:35.144Z,6.40
2023-04-05T18:37:01.938Z,7.28
2023-04-05T18:39:28.507Z,8.38
2023-04-05T18:41:55.105Z,7.00
2023-04-05T18:44:21.686Z,8.05
2023-04-05T18:46:49.646Z,7.38
2023-04-05T18:49:18.257Z,9.32
2023-04-05T18:51:45.593Z,8.95
2023-04-05T18:54:13.761Z,12.48
2023-04-05T18:56:40.554Z,11.65
2023-04-05T18:59:07.544Z,10.63
2023-04-05T19:01:34.405Z,10.43
2023-04-05T19:04:00.901Z,9.30
2023-04-05T19:06:28.073Z,11.00
2023-04-05T19:08:54.587Z,13.18
2023-04-05T19:11:22.054Z,10.50
2023-04-05T19:13:48.623Z,14.25
2023-04-05T19:16:20.299Z,15.98
2023-04-05T19:18:46.814Z,13.30
2023-04-05T19:21:13.795Z,16.73
2023-04-05T19:23:40.339Z,20.48
2023-04-05T19:26:06.963Z,18.30
2023-04-05T19:28:33.519Z,20.52
2023-04-05T19:31:00.117Z,21.80
2023-04-05T19:33:29.581Z,17.70
2023-04-05T19:35:57.924Z,19.42
2023-04-05T19:38:27.939Z,20.52
2023-04-05T19:40:54.514Z,21.77
2023-04-05T19:43:21.286Z,18.30
2023-04-05T19:45:52.236Z,20.05
2023-04-05T19:48:38.617Z,23.35
2023-04-05T19:51:07.587Z,22.58
2023-04-05T19:53:39.974Z,19.90
2023-04-05T19:56:13.826Z,22.92
2023-04-05T19:58:43.923Z,22.25
2023-04-05T20:01:13.870Z,20.65
2023-04-05T20:03:41.954Z,23.83
2023-04-05T20:06:09.404Z,21.73
2023-04-05T20:08:46.684Z,23.77
2023-04-05T20:11:22.124Z,20.67
2023-04-05T20:13:55.651Z,19.00
2023-04-05T20:16:33.590Z,15.73
2023-04-05T20:19:14.389Z,17.00
2023-04-05T20:21:42.131Z,13.25
2023-04-05T20:24:10.979Z,17.80
2023-04-05T20:26:40.053Z,14.05
2023-04-05T20:29:08.378Z,11.80
2023-04-05T20:31:39.688Z,17.45
2023-04-05T20:34:29.956Z,19.23
2023-04-05T20:37:05.392Z,18.25
2023-04-05T20:39:34.357Z,17.33
2023-04-05T20:42:04.889Z,14.85
2023-04-05T20:44:34.945Z,15.00
2023-04-05T20:47:01.579Z,12.43
2023-04-05T20:49:31.404Z,13.38
2023-04-05T20:51:58.068Z,18.33
2023-04-05T20:54:25.031Z,13.95
2023-04-05T20:56:55.059Z,17.98
2023-04-05T20:59:22.977Z,15.57
2023-04-05T21:01:49.680Z,15.80
2023-04-05T21:04:18.245Z,17.75
2023-04-05T21:06:44.827Z,18.90
2023-04-05T21:09:14.133Z,14.43
2023-04-05T21:11:40.797Z,21.33
2023-04-05T21:14:07.327Z,11.27
2023-04-05T21:16:36.668Z,16.88
2023-04-05T21:19:07.894Z,17.60
2023-04-05T21:21:34.686Z,16.23
2023-04-05T21:24:01.213Z,13.85
2023-04-05T21:26:27.812Z,10.48
2023-04-05T21:28:54.360Z,20.70
2023-04-05T21:31:20.937Z,15.13
2023-04-05T21:33:50.116Z,13.32
2023-04-05T21:36:16.658Z,17.08
2023-04-05T21:38:45.921Z,12.05
2023-04-05T21:41:12.512Z,12.82
2023-04-05T21:43:39.041Z,11.90
2023-04-05T21:46:05.606Z,11.75
2023-04-05T21:48:32.136Z,12.40
2023-04-05T21:50:58.676Z,10.07
2023-04-05T21:53:25.569Z,11.35
2023-04-05T21:55:53.112Z,9.02
2023-04-05T21:58:21.940Z,11.25
2023-04-05T22:01:03.857Z,10.10
2023-04-05T22:03:33.773Z,8.07
2023-04-05T22:06:04.721Z,7.90
2023-04-05T22:12:12.112Z,10.38
2023-04-05T22:14:38.648Z,8.50
2023-04-05T22:17:05.248Z,11.10
2023-04-05T22:19:37.481Z,10.52
2023-04-05T22:22:04.040Z,10.57
2023-04-05T22:24:30.708Z,16.38
2023-04-05T22:26:59.578Z,9.00
2023-04-05T22:29:26.228Z,8.73
2023-04-05T22:31:52.790Z,11.32
2023-04-05T22:34:19.414Z,9.90
2023-04-05T22:36:46.090Z,12.15
2023-04-05T22:39:12.749Z,10.70
2023-04-05T22:41:39.274Z,10.98
2023-04-05T22:44:06.350Z,9.80
2023-04-05T22:46:33.074Z,10.23
2023-04-05T22:49:03.060Z,11.88
2023-04-05T22:51:29.946Z,8.85
2023-04-05T22:53:56.673Z,9.43
2023-04-05T22:56:24.081Z,11.13
2023-04-05T22:58:51.506Z,9.88
2023-04-05T23:01:18.711Z,9.20
2023-04-05T23:03:45.588Z,9.70
2023-04-05T23:06:14.172Z,10.70
2023-04-05T23:08:46.673Z,8.23
2023-04-05T23:11:13.239Z,12.00
2023-04-05T23:13:42.399Z,10.20
2023-04-05T23:16:09.046Z,13.10
2023-04-05T23:18:35.779Z,12.60
2023-04-05T23:21:05.703Z,15.30
2023-04-05T23:23:32.286Z,12.35
2023-04-05T23:25:58.805Z,13.95
2023-04-05T23:28:25.484Z,12.40
2023-04-05T23:30:52.054Z,12.60
2023-04-05T23:33:25.786Z,14.05
2023-04-05T23:35:52.340Z,14.45
2023-04-05T23:38:22.089Z,13.57
2023-04-05T23:40:48.581Z,13.18
2023-04-05T23:43:17.801Z,18.77
2023-04-05T23:45:44.353Z,14.95
2023-04-05T23:48:10.977Z,11.90
2023-04-05T23:50:37.555Z,11.00
2023-04-05T23:53:07.834Z,11.25
2023-04-05T23:55:40.058Z,10.65
2023-04-05T23:58:08.157Z,14.05
